Aeroporto :
LOGIN :

Iscrizione | Disclaimer

   EN    FR    IT 

 










Sommario :    VFR   VFR Marginale   IFR   IFR Intensivo   IFR Molto Intensivo
Visibilità : 
Base nubi : 
>= 8 km
>= 3000ft
5 / 8 km
1000 / 3000 ft
1500m / 5 km
500 / 1000 ft
800 / 1500m
200 / 500 ft
< 800m
< 200 ft
Simboli :   Temporali  Nebbia  Neve Forte  Precipitazioni Forti  Vento > 20 kt
SIGMETs :   Varie  Temporali  Ghiacco  Turbolenza  Onda orograficha  Ceneri Vulcaniche







- Altitudine del aeroporto : 296 ft
- Codice IATA : GKE


ETNG - Geilenkirchen

ULTIMO METAR :
  • 170050Z 32008KT CAVOK 18/16 Q1015

METARs OBSOLETI :
  • 162350Z 12001KT CAVOK 17/14 Q1014
  • 162250Z 24001KT CAVOK 17/15 Q1014

TAF TAF ETNG
Valido dal 17 a 00 ore il 17 a 15 ore UTC


162300Z 1700/1715 33005KT CAVOK
BECMG 1703/1705 6000 -RA BKN015
PROB30
TEMPO 1703/1705 4000 SHRA TSRA BKN015CB
TEMPO 1705/1709 4000 RADZ BKN008
BECMG 1710/1712 9999 NSW SCT015 BKN025
BECMG 1713/1715 SCT035 BKN050
Nessun NOTAM noto per questo aeroporto.



MetMap, La meteo Aeronautica in un colpo d'occhio ! - Copyright ORBIFLY Dicembre 2007 - Disclaimer

ORBIFLY MET'MAP TEAM :

Programmazione e sviluppo : Alexandra Zaïnal
Concezione e sviluppo : Baudouin d'Aumeries
Co-Programmazione e sviluppo : Marc-Olivier Méhu
Supporto tecnico e logistico : Manuel Goepfert
Aiuto per la traduzione : Arnaldo La Scala

Contatto : metmap@orbifly.com




FONTI E CREDITI :

   NOAA